Time;durP1;ratioP1;P1;durP2;ratioP2;P2;SDS_P1;SDS_P2;PMS_P1;PMS_P2;Temp;Humidity;BMP_temperature;BMP_pressure;BME280_temperature;BME280_humidity;BME280_pressure;Samples;Min_cycle;Max_cycle;Signal;HPM_P1;HPM_P2
2021/11/08 00:01:13;;;;;;;20.55;6.90;;;6.40;90.80;;;;;;5029508;28;20201;-58
2021/11/08 00:03:44;;;;;;;16.73;7.63;;;6.40;90.90;;;;;;5029080;28;20057;-58
2021/11/08 00:06:11;;;;;;;21.77;9.27;;;6.40;90.90;;;;;;5030173;28;20085;-58
2021/11/08 00:08:39;;;;;;;27.52;6.68;;;6.30;91.00;;;;;;5030003;28;20107;-59
2021/11/08 00:11:06;;;;;;;21.60;7.70;;;6.30;91.00;;;;;;5029535;28;20480;-58
2021/11/08 00:13:33;;;;;;;29.30;7.07;;;6.30;90.90;;;;;;5029813;28;20053;-59
2021/11/08 00:16:28;;;;;;;21.35;6.97;;;6.20;90.90;;;;;;5028166;28;20080;-58
2021/11/08 00:21:35;;;;;;;24.65;7.10;;;6.20;91.00;;;;;;5028041;28;20104;-57
2021/11/08 00:24:03;;;;;;;25.52;6.40;;;6.20;91.10;;;;;;5027899;28;20046;-57
2021/11/08 00:26:29;;;;;;;25.08;6.28;;;6.10;91.10;;;;;;5028149;28;20080;-56
2021/11/08 00:28:56;;;;;;;27.23;7.47;;;6.10;91.20;;;;;;5028195;28;20068;-58
2021/11/08 00:31:23;;;;;;;18.15;7.22;;;6.10;91.30;;;;;;5029225;28;20140;-57
2021/11/08 00:33:49;;;;;;;20.23;6.47;;;6.10;91.20;;;;;;5029256;28;20104;-58
2021/11/08 00:36:16;;;;;;;28.00;6.65;;;6.20;91.20;;;;;;5029237;28;20132;-57
2021/11/08 00:38:44;;;;;;;27.13;5.63;;;6.20;91.20;;;;;;5029443;28;20107;-58
2021/11/08 00:41:11;;;;;;;18.40;6.13;;;6.20;91.20;;;;;;5028944;28;20049;-56
2021/11/08 00:43:38;;;;;;;17.73;5.30;;;6.20;91.10;;;;;;5029155;28;20092;-58
2021/11/08 00:46:05;;;;;;;25.92;6.30;;;6.20;91.50;;;;;;5029039;28;20099;-58
2021/11/08 00:48:35;;;;;;;23.13;6.50;;;6.20;91.30;;;;;;5029721;28;20126;-58
2021/11/08 00:51:02;;;;;;;22.02;4.70;;;6.10;91.60;;;;;;5028792;28;20053;-59
2021/11/08 00:53:31;;;;;;;25.83;5.97;;;6.20;91.50;;;;;;5029273;28;20060;-58
2021/11/08 00:56:02;;;;;;;15.18;4.18;;;6.20;91.50;;;;;;5029033;28;20116;-57
2021/11/08 00:58:33;;;;;;;18.20;5.30;;;6.20;91.40;;;;;;5028250;28;20469;-57
2021/11/08 01:01:05;;;;;;;21.20;5.07;;;6.20;91.70;;;;;;5029082;28;20111;-57
2021/11/08 01:03:33;;;;;;;15.38;4.13;;;6.30;91.40;;;;;;5027430;28;20104;-58
2021/11/08 01:06:01;;;;;;;20.30;5.05;;;6.30;91.50;;;;;;5028863;28;20084;-57
2021/11/08 01:08:27;;;;;;;12.05;4.53;;;6.30;91.50;;;;;;5029330;28;20455;-58
2021/11/08 01:10:54;;;;;;;14.98;5.43;;;6.20;92.40;;;;;;5028712;28;20077;-58
2021/11/08 01:13:21;;;;;;;17.45;5.47;;;6.20;91.80;;;;;;5028686;28;20128;-58
2021/11/08 01:15:48;;;;;;;22.63;5.53;;;6.20;91.60;;;;;;5027277;28;20085;-58
2021/11/08 01:18:15;;;;;;;24.45;6.00;;;6.30;91.60;;;;;;5028717;28;20539;-56
2021/11/08 01:20:46;;;;;;;32.80;5.10;;;6.30;91.50;;;;;;5028779;28;20053;-57
2021/11/08 01:23:15;;;;;;;26.20;4.72;;;6.20;91.60;;;;;;5028504;28;20099;-58
2021/11/08 01:25:42;;;;;;;16.92;3.80;;;6.20;91.70;;;;;;5028421;28;20491;-57
2021/11/08 01:28:10;;;;;;;31.08;5.65;;;6.20;91.80;;;;;;5028996;28;20053;-56
2021/11/08 01:30:37;;;;;;;15.98;5.50;;;6.20;91.90;;;;;;5027212;28;20492;-57
2021/11/08 01:33:08;;;;;;;18.45;3.72;;;6.20;91.80;;;;;;5028063;28;20049;-57
2021/11/08 01:40:43;;;;;;;22.70;4.68;;;6.20;91.90;;;;;;5028190;28;20496;-58
2021/11/08 01:43:11;;;;;;;17.70;4.43;;;6.20;91.90;;;;;;5024319;28;20156;-58
2021/11/08 01:45:38;;;;;;;16.92;3.50;;;6.10;91.80;;;;;;5027451;28;20053;-60
2021/11/08 01:48:05;;;;;;;26.98;4.20;;;6.10;91.80;;;;;;5028128;28;20084;-58
2021/11/08 01:50:33;;;;;;;19.83;4.05;;;6.20;91.80;;;;;;5027752;28;20077;-58
2021/11/08 01:53:00;;;;;;;20.58;4.20;;;6.20;91.80;;;;;;5027561;28;20077;-57
2021/11/08 01:55:27;;;;;;;14.30;3.85;;;6.20;91.80;;;;;;5027940;28;20556;-56
2021/11/08 01:57:54;;;;;;;15.10;3.60;;;6.10;91.90;;;;;;5027680;28;20042;-56
2021/11/08 02:00:21;;;;;;;16.90;3.97;;;6.10;92.00;;;;;;5028297;28;20473;-57
2021/11/08 02:02:48;;;;;;;15.10;3.95;;;6.10;91.90;;;;;;5027668;28;20456;-56
2021/11/08 02:05:15;;;;;;;24.52;4.10;;;6.20;91.90;;;;;;5026520;28;20132;-58
2021/11/08 02:07:43;;;;;;;25.58;4.47;;;6.20;92.20;;;;;;5028000;28;20068;-58
2021/11/08 02:10:11;;;;;;;21.65;4.70;;;6.20;92.10;;;;;;5028013;28;20564;-57
2021/11/08 02:12:37;;;;;;;22.38;4.30;;;6.20;92.00;;;;;;5027385;28;20600;-57
2021/11/08 02:15:06;;;;;;;14.13;4.03;;;6.20;91.90;;;;;;5027731;28;20128;-58
2021/11/08 02:17:33;;;;;;;16.52;3.70;;;6.20;91.80;;;;;;5026010;28;20049;-57
2021/11/08 02:20:14;;;;;;;12.43;3.38;;;6.20;91.90;;;;;;5028168;28;20042;-56
2021/11/08 02:22:42;;;;;;;15.23;4.88;;;6.20;92.30;;;;;;5027683;28;20087;-57
2021/11/08 02:25:09;;;;;;;15.38;4.45;;;6.20;91.90;;;;;;5007979;28;20054;-57
2021/11/08 02:27:39;;;;;;;20.60;4.22;;;6.10;91.80;;;;;;5012531;28;20042;-59
2021/11/08 02:30:06;;;;;;;12.07;3.55;;;6.10;91.90;;;;;;5027585;28;20137;-58
2021/11/08 02:32:33;;;;;;;21.58;4.25;;;6.10;92.00;;;;;;5025936;28;20088;-57
2021/11/08 02:35:01;;;;;;;13.40;3.33;;;6.10;92.10;;;;;;5027748;28;20073;-57
2021/11/08 02:37:28;;;;;;;13.02;3.78;;;6.10;92.00;;;;;;5027692;28;20408;-56
2021/11/08 02:39:56;;;;;;;18.98;3.75;;;6.10;92.10;;;;;;5027382;28;20435;-57
2021/11/08 02:42:22;;;;;;;21.65;4.65;;;6.00;92.20;;;;;;5027440;28;20107;-57
2021/11/08 02:44:49;;;;;;;17.35;4.05;;;5.90;92.30;;;;;;5026368;28;20085;-57
2021/11/08 02:47:16;;;;;;;14.05;4.00;;;6.00;92.30;;;;;;5027400;28;20053;-58
2021/11/08 02:49:45;;;;;;;19.10;4.30;;;6.00;92.20;;;;;;5026981;28;20085;-59
2021/11/08 02:52:16;;;;;;;18.90;3.42;;;6.00;92.30;;;;;;5007477;28;20593;-58
2021/11/08 02:54:46;;;;;;;14.40;3.65;;;6.10;92.10;;;;;;5022631;28;20523;-57
2021/11/08 02:57:13;;;;;;;20.48;4.18;;;6.10;92.10;;;;;;5025737;28;20091;-57
2021/11/08 02:59:40;;;;;;;18.23;3.50;;;6.10;92.00;;;;;;5025834;28;20085;-58
2021/11/08 03:02:08;;;;;;;21.88;4.88;;;6.10;92.00;;;;;;5029151;28;20129;-57
2021/11/08 03:04:41;;;;;;;21.02;5.47;;;6.10;92.00;;;;;;5030804;28;20140;-58
2021/11/08 03:07:10;;;;;;;13.48;4.07;;;6.10;92.00;;;;;;5031045;28;20128;-58
2021/11/08 03:09:46;;;;;;;16.55;3.97;;;6.00;92.00;;;;;;5029752;28;20051;-59
2021/11/08 03:12:18;;;;;;;16.25;4.25;;;6.00;92.20;;;;;;5030662;28;20049;-58
2021/11/08 03:15:08;;;;;;;14.23;3.97;;;6.00;92.00;;;;;;5030504;28;20077;-57
2021/11/08 03:17:39;;;;;;;14.65;3.60;;;5.90;92.00;;;;;;5031092;28;20068;-57
2021/11/08 03:20:10;;;;;;;15.73;3.70;;;5.90;92.10;;;;;;5030562;28;20132;-56
2021/11/08 03:22:38;;;;;;;11.02;3.17;;;5.80;92.10;;;;;;5030843;28;20129;-55
2021/11/08 03:25:25;;;;;;;10.82;4.40;;;5.80;92.00;;;;;;5030248;28;20560;-57
2021/11/08 03:27:53;;;;;;;10.63;3.28;;;5.70;91.90;;;;;;5031287;28;20081;-57
2021/11/08 03:30:27;;;;;;;22.15;3.60;;;5.70;92.00;;;;;;5030582;28;20092;-58
2021/11/08 03:32:55;;;;;;;14.98;3.58;;;5.60;92.20;;;;;;5027199;28;20058;-58
2021/11/08 03:35:23;;;;;;;24.30;4.55;;;5.60;92.20;;;;;;5030791;28;20091;-58
2021/11/08 03:37:51;;;;;;;11.98;2.72;;;5.50;92.30;;;;;;5030710;28;20099;-57
2021/11/08 03:40:38;;;;;;;14.57;5.15;;;5.50;92.30;;;;;;5030116;28;20038;-58
2021/11/08 03:43:06;;;;;;;18.98;4.93;;;6.00;93.10;;;;;;5030247;28;20504;-58
2021/11/08 03:45:35;;;;;;;21.38;4.10;;;5.60;92.40;;;;;;5030250;28;20092;-56
2021/11/08 03:48:02;;;;;;;13.13;3.67;;;5.60;92.30;;;;;;5030687;28;20087;-58
2021/11/08 03:50:29;;;;;;;18.13;4.88;;;5.60;92.30;;;;;;5030134;28;20588;-57
2021/11/08 03:52:56;;;;;;;17.17;4.38;;;5.50;92.30;;;;;;5029293;28;20088;-60
2021/11/08 03:55:22;;;;;;;18.60;3.67;;;5.50;92.30;;;;;;5029298;28;20088;-59
2021/11/08 03:57:50;;;;;;;11.77;3.10;;;5.50;92.50;;;;;;5030180;28;20122;-58
2021/11/08 04:00:17;;;;;;;21.00;5.70;;;5.50;92.30;;;;;;5030292;28;20045;-58
2021/11/08 04:02:44;;;;;;;16.10;5.13;;;5.50;92.30;;;;;;5026005;28;20115;-58
2021/11/08 04:05:12;;;;;;;14.77;3.53;;;5.60;92.40;;;;;;5028466;28;20050;-56
2021/11/08 04:07:38;;;;;;;18.45;4.60;;;5.60;92.50;;;;;;5027100;28;20456;-58
2021/11/08 04:10:06;;;;;;;20.33;4.90;;;5.70;92.40;;;;;;5028746;28;20176;-58
2021/11/08 04:12:35;;;;;;;13.60;3.95;;;5.50;92.30;;;;;;5027545;28;20073;-56
2021/11/08 04:15:06;;;;;;;21.02;4.72;;;5.50;92.40;;;;;;5028126;28;20057;-55
2021/11/08 04:17:33;;;;;;;14.05;3.83;;;5.50;92.30;;;;;;5029477;28;20088;-56
2021/11/08 04:20:01;;;;;;;14.75;4.07;;;5.50;92.40;;;;;;5030210;28;20046;-56
2021/11/08 04:22:27;;;;;;;16.02;4.43;;;5.50;92.40;;;;;;5029905;28;20076;-57
2021/11/08 04:24:54;;;;;;;12.48;4.20;;;5.50;92.40;;;;;;5029796;28;20461;-57
2021/11/08 04:27:21;;;;;;;17.10;3.75;;;5.40;92.50;;;;;;5029620;28;20099;-56
2021/11/08 04:29:48;;;;;;;19.40;4.53;;;5.40;92.40;;;;;;5030221;28;20240;-55
2021/11/08 04:32:15;;;;;;;14.63;2.95;;;5.30;92.50;;;;;;5029565;28;20623;-57
2021/11/08 04:39:58;;;;;;;22.38;3.42;;;5.50;92.50;;;;;;5030114;28;20049;-57
2021/11/08 04:53:18;;;;;;;13.02;3.28;;;5.30;92.60;;;;;;5029305;28;20627;-59
2021/11/08 04:56:21;;;;;;;12.88;3.53;;;5.20;92.60;;;;;;5029191;28;20045;-57
2021/11/08 05:27:52;;;;;;;10.55;3.13;;;5.30;92.70;;;;;;5017697;28;20413;-57
2021/11/08 05:31:31;;;;;;;9.02;2.75;;;5.30;92.70;;;;;;5028532;28;20092;-58
2021/11/08 05:33:58;;;;;;;27.00;5.30;;;5.30;92.70;;;;;;5027448;28;20128;-57
2021/11/08 05:36:25;;;;;;;9.98;2.85;;;5.20;92.90;;;;;;5028631;28;20498;-55
2021/11/08 05:38:52;;;;;;;19.55;4.38;;;5.20;93.00;;;;;;5025523;28;20717;-58
2021/11/08 05:41:19;;;;;;;19.48;3.50;;;5.10;92.90;;;;;;5028164;28;20057;-57
2021/11/08 05:43:45;;;;;;;16.73;3.35;;;5.10;93.10;;;;;;5027994;28;20049;-57
2021/11/08 05:46:12;;;;;;;23.88;5.05;;;5.10;93.70;;;;;;5024431;28;20136;-57
2021/11/08 05:48:39;;;;;;;27.13;5.20;;;5.20;93.40;;;;;;5028012;28;20081;-57
2021/11/08 05:51:06;;;;;;;18.35;3.67;;;5.20;93.30;;;;;;5028180;28;20115;-57
2021/11/08 05:53:32;;;;;;;15.88;3.63;;;5.20;93.10;;;;;;5027476;28;20140;-58
2021/11/08 06:51:00;;;;;;;14.70;3.65;;;5.30;93.40;;;;;;5026947;28;20072;-57
2021/11/08 06:53:29;;;;;;;18.23;3.63;;;5.70;93.40;;;;;;5024560;28;20081;-57
2021/11/08 06:55:58;;;;;;;13.82;3.47;;;5.30;93.30;;;;;;5026980;28;20095;-57
2021/11/08 06:58:26;;;;;;;13.80;3.97;;;5.30;93.20;;;;;;5026719;28;20041;-57
2021/11/08 07:00:53;;;;;;;19.52;4.63;;;5.20;93.20;;;;;;5014064;28;20500;-57
2021/11/08 07:03:21;;;;;;;23.45;5.53;;;5.20;93.30;;;;;;5024672;28;20088;-57
2021/11/08 07:05:47;;;;;;;15.18;3.55;;;5.20;93.30;;;;;;5025730;28;20049;-57
2021/11/08 07:08:14;;;;;;;11.88;4.30;;;5.10;93.30;;;;;;5026301;28;20081;-58
2021/11/08 07:10:41;;;;;;;22.00;4.45;;;5.10;93.40;;;;;;5026559;28;20093;-58
2021/11/08 07:13:11;;;;;;;27.00;5.32;;;5.10;93.50;;;;;;5024529;28;20052;-59
2021/11/08 07:15:37;;;;;;;18.80;5.00;;;5.10;93.50;;;;;;5026682;28;20053;-58
2021/11/08 07:18:04;;;;;;;16.10;4.22;;;5.10;93.60;;;;;;5026843;28;20088;-58
2021/11/08 07:20:31;;;;;;;19.60;5.82;;;5.10;93.70;;;;;;5026720;28;20081;-58
2021/11/08 07:22:59;;;;;;;23.02;5.32;;;5.20;93.60;;;;;;5026871;28;20080;-56
2021/11/08 07:25:26;;;;;;;16.30;5.45;;;5.30;93.60;;;;;;5026690;28;20049;-57
2021/11/08 07:27:52;;;;;;;23.77;5.38;;;5.30;93.60;;;;;;5026453;28;20550;-58
2021/11/08 07:30:21;;;;;;;11.43;4.55;;;5.40;93.40;;;;;;5026416;28;20092;-57
2021/11/08 07:32:48;;;;;;;23.85;4.65;;;5.40;93.40;;;;;;5026127;28;20547;-57
2021/11/08 07:35:15;;;;;;;11.90;3.13;;;5.30;93.40;;;;;;5026712;28;20504;-58
2021/11/08 07:37:43;;;;;;;23.95;4.50;;;5.40;93.40;;;;;;5026414;28;20085;-57
2021/11/08 07:40:10;;;;;;;19.77;4.85;;;5.40;93.40;;;;;;5026766;28;20073;-55
2021/11/08 07:42:37;;;;;;;19.35;3.80;;;5.30;93.40;;;;;;5025078;28;20053;-54
2021/11/08 07:45:04;;;;;;;14.95;4.78;;;5.40;93.60;;;;;;5025292;28;20120;-55
2021/11/08 07:47:31;;;;;;;13.90;3.67;;;5.40;93.50;;;;;;5027392;28;20045;-54
2021/11/08 07:49:58;;;;;;;15.88;4.28;;;5.40;93.50;;;;;;5030066;28;20056;-52
2021/11/08 07:52:25;;;;;;;18.85;3.28;;;5.30;93.50;;;;;;5030363;28;20493;-51
2021/11/08 07:54:51;;;;;;;24.55;4.20;;;5.40;93.60;;;;;;5030195;28;20049;-55
2021/11/08 07:57:19;;;;;;;20.83;4.20;;;5.40;93.80;;;;;;5029813;28;20125;-58
2021/11/08 07:59:46;;;;;;;20.45;4.65;;;5.50;93.60;;;;;;5030003;28;20140;-55
2021/11/08 08:02:12;;;;;;;20.27;4.93;;;5.60;93.60;;;;;;5027993;28;20264;-55
2021/11/08 08:04:39;;;;;;;14.30;4.25;;;5.60;93.60;;;;;;5028676;28;20080;-55
2021/11/08 08:07:06;;;;;;;14.88;3.42;;;5.70;93.60;;;;;;5029907;28;20136;-55
2021/11/08 08:09:33;;;;;;;11.07;3.40;;;5.80;93.80;;;;;;5029113;28;20469;-56
2021/11/08 08:12:01;;;;;;;20.20;4.38;;;5.90;93.80;;;;;;5028352;28;20131;-52
2021/11/08 08:14:28;;;;;;;22.73;5.40;;;5.90;93.80;;;;;;5029051;28;20077;-54
2021/11/08 08:16:54;;;;;;;17.05;4.10;;;6.00;93.80;;;;;;5025614;28;20620;-53
2021/11/08 08:19:21;;;;;;;11.95;3.25;;;6.10;93.70;;;;;;5029757;28;20045;-54
2021/11/08 08:21:48;;;;;;;24.27;3.75;;;6.30;93.80;;;;;;5029833;28;20050;-55
2021/11/08 08:24:15;;;;;;;13.00;3.20;;;6.30;93.70;;;;;;5028301;28;20054;-54
2021/11/08 08:26:42;;;;;;;14.93;3.47;;;6.40;93.60;;;;;;5029331;28;20077;-55
2021/11/08 08:29:09;;;;;;;15.93;4.20;;;6.40;93.60;;;;;;5029197;28;20452;-54
2021/11/08 08:31:38;;;;;;;21.27;3.97;;;6.50;93.60;;;;;;5027226;28;20076;-54
2021/11/08 08:34:04;;;;;;;19.92;4.72;;;6.60;93.50;;;;;;5029336;28;20080;-55
2021/11/08 08:36:32;;;;;;;18.45;5.45;;;6.60;93.40;;;;;;5028006;28;20559;-54
2021/11/08 08:38:59;;;;;;;34.50;7.30;;;6.60;93.30;;;;;;5029360;28;20550;-53
2021/11/08 08:41:26;;;;;;;14.20;4.03;;;6.60;93.40;;;;;;5028803;28;20089;-58
2021/11/08 08:43:52;;;;;;;12.38;4.18;;;6.60;93.30;;;;;;5008335;28;20069;-55
2021/11/08 08:46:20;;;;;;;22.52;4.88;;;6.60;93.40;;;;;;5023130;28;20151;-55
2021/11/08 08:48:47;;;;;;;20.83;5.25;;;6.60;93.50;;;;;;5029664;28;20096;-54
2021/11/08 08:51:14;;;;;;;27.00;5.53;;;6.60;93.60;;;;;;5028784;28;20264;-56
2021/11/08 08:53:41;;;;;;;20.73;4.97;;;6.70;93.70;;;;;;5029215;28;20564;-56
2021/11/08 08:56:23;;;;;;;14.07;4.53;;;6.70;93.60;;;;;;5029286;28;20108;-56
2021/11/08 08:58:52;;;;;;;21.27;4.72;;;6.80;93.70;;;;;;5028690;28;20474;-57
2021/11/08 09:01:19;;;;;;;18.85;5.10;;;6.90;93.60;;;;;;5029464;28;20547;-56
2021/11/08 09:03:46;;;;;;;18.85;4.88;;;7.00;93.60;;;;;;5029128;28;20489;-56
2021/11/08 09:06:14;;;;;;;14.32;3.88;;;7.20;93.50;;;;;;5028661;28;20249;-57
2021/11/08 09:08:41;;;;;;;21.15;4.30;;;7.30;93.60;;;;;;5028931;28;20125;-57
2021/11/08 09:11:08;;;;;;;24.60;4.43;;;7.50;93.50;;;;;;5026946;28;20057;-57
2021/11/08 09:13:35;;;;;;;24.38;5.30;;;7.50;93.40;;;;;;5027278;28;20133;-56
2021/11/08 09:16:05;;;;;;;22.25;5.25;;;7.60;93.30;;;;;;5027056;28;20064;-56
2021/11/08 09:18:32;;;;;;;21.52;5.32;;;7.70;93.20;;;;;;5027212;28;20118;-56
2021/11/08 09:20:59;;;;;;;21.08;4.82;;;7.80;93.10;;;;;;5009727;28;20053;-55
2021/11/08 09:23:25;;;;;;;17.90;4.38;;;7.90;93.00;;;;;;5027043;28;20096;-56
2021/11/08 09:25:52;;;;;;;15.20;4.60;;;7.90;92.90;;;;;;5027933;28;20119;-56
2021/11/08 09:28:19;;;;;;;16.38;4.38;;;8.00;92.80;;;;;;5028185;28;20429;-57
2021/11/08 09:30:46;;;;;;;27.58;4.35;;;8.00;92.60;;;;;;5028754;28;20133;-57
2021/11/08 09:33:12;;;;;;;17.80;3.30;;;8.10;92.60;;;;;;5024782;28;20045;-56
2021/11/08 09:35:48;;;;;;;21.27;4.82;;;8.10;92.90;;;;;;5029025;28;20081;-56
2021/11/08 09:38:16;;;;;;;16.60;3.55;;;8.20;92.60;;;;;;5028735;28;20049;-55
2021/11/08 09:40:43;;;;;;;10.60;3.72;;;8.20;92.40;;;;;;5028342;28;20100;-57
2021/11/08 09:43:14;;;;;;;14.63;3.78;;;8.20;92.30;;;;;;5028512;28;20087;-58
2021/11/08 09:45:42;;;;;;;22.58;4.45;;;8.20;92.40;;;;;;5029102;28;20124;-55
2021/11/08 09:48:11;;;;;;;22.52;4.63;;;8.30;92.30;;;;;;5028909;28;20128;-56
2021/11/08 09:50:40;;;;;;;18.17;5.07;;;8.40;92.30;;;;;;5027453;28;20548;-57
2021/11/08 09:53:07;;;;;;;13.02;4.15;;;8.40;92.10;;;;;;5028456;28;20072;-57
2021/11/08 09:55:34;;;;;;;24.08;4.00;;;8.40;92.30;;;;;;5028176;28;20670;-52
2021/11/08 09:58:01;;;;;;;19.42;4.25;;;8.50;92.40;;;;;;5028318;28;20084;-54
2021/11/08 10:00:37;;;;;;;18.58;4.20;;;8.60;92.30;;;;;;5028856;28;20080;-56
2021/11/08 10:03:11;;;;;;;21.58;5.53;;;8.60;92.20;;;;;;5027910;28;20051;-55
2021/11/08 10:05:42;;;;;;;15.80;3.95;;;8.70;92.10;;;;;;5028497;28;20077;-53
2021/11/08 10:08:22;;;;;;;15.25;4.03;;;8.70;91.90;;;;;;5027514;28;20049;-54
2021/11/08 10:10:50;;;;;;;16.73;4.18;;;8.80;92.20;;;;;;5027437;28;20117;-54
2021/11/08 10:13:19;;;;;;;25.67;4.38;;;8.90;91.90;;;;;;5026728;28;20045;-57
2021/11/08 10:15:48;;;;;;;24.65;4.05;;;9.00;91.80;;;;;;5028314;28;20050;-55
2021/11/08 10:18:16;;;;;;;17.98;4.18;;;9.00;91.70;;;;;;5028417;28;20064;-56
2021/11/08 10:20:45;;;;;;;22.95;7.15;;;9.00;91.50;;;;;;5028130;28;20081;-56
2021/11/08 10:23:13;;;;;;;17.73;3.92;;;9.10;91.60;;;;;;5027744;28;20096;-57
2021/11/08 10:25:42;;;;;;;23.40;4.75;;;9.10;91.60;;;;;;5028054;28;20041;-57
2021/11/08 10:28:17;;;;;;;20.45;5.00;;;9.20;91.60;;;;;;5028278;28;20089;-53
2021/11/08 10:30:45;;;;;;;13.95;3.00;;;9.30;91.40;;;;;;5024556;28;20068;-57
2021/11/08 10:33:19;;;;;;;11.32;4.22;;;9.40;91.40;;;;;;5026473;28;20451;-55
2021/11/08 10:35:47;;;;;;;14.43;3.80;;;9.40;90.60;;;;;;5026803;28;20045;-54
2021/11/08 10:38:23;;;;;;;15.65;4.72;;;9.40;91.20;;;;;;5028245;28;20085;-55
2021/11/08 10:40:56;;;;;;;20.13;4.63;;;9.50;91.00;;;;;;5010023;28;20053;-55
2021/11/08 10:43:34;;;;;;;24.60;3.80;;;9.60;91.10;;;;;;5027866;28;20099;-56
2021/11/08 10:46:11;;;;;;;17.15;3.60;;;9.60;90.70;;;;;;5027587;28;20084;-53
2021/11/08 10:48:50;;;;;;;25.88;4.43;;;9.70;90.60;;;;;;5027719;28;20558;-58
2021/11/08 10:51:18;;;;;;;27.20;5.07;;;9.70;90.20;;;;;;5025691;28;20156;-57
2021/11/08 10:53:56;;;;;;;13.82;3.60;;;9.70;90.80;;;;;;5027891;28;20107;-57
2021/11/08 10:56:31;;;;;;;16.80;4.55;;;9.80;90.10;;;;;;5025991;28;20069;-56
2021/11/08 10:59:00;;;;;;;16.42;4.93;;;9.90;90.50;;;;;;5027973;28;20394;-57
2021/11/08 11:01:36;;;;;;;16.05;3.90;;;10.00;90.60;;;;;;5026138;28;20073;-57
2021/11/08 11:04:04;;;;;;;20.92;4.45;;;10.30;90.40;;;;;;5027448;28;20575;-54
2021/11/08 11:06:43;;;;;;;12.88;3.95;;;10.10;90.60;;;;;;5026920;28;20132;-55
2021/11/08 11:09:24;;;;;;;12.45;3.42;;;10.30;90.10;;;;;;5027625;28;20133;-58
2021/11/08 11:12:11;;;;;;;26.55;6.60;;;10.30;90.20;;;;;;5027296;28;20085;-57
2021/11/08 11:14:56;;;;;;;21.00;8.93;;;10.20;87.10;;;;;;5027596;28;20076;-56
2021/11/08 11:17:33;;;;;;;25.23;4.68;;;10.20;89.20;;;;;;5024861;28;20085;-55
2021/11/08 11:20:07;;;;;;;24.08;4.90;;;10.30;90.00;;;;;;5027411;28;20050;-56
2021/11/08 11:22:35;;;;;;;20.02;3.40;;;10.20;89.10;;;;;;5028597;28;20141;-57
2021/11/08 11:25:04;;;;;;;24.60;4.30;;;10.30;90.00;;;;;;5029926;28;20081;-56
2021/11/08 11:27:37;;;;;;;17.77;2.80;;;10.20;89.00;;;;;;5029398;28;20072;-56
2021/11/08 11:30:21;;;;;;;18.60;3.83;;;10.20;89.10;;;;;;5031236;28;20132;-56
2021/11/08 11:33:11;;;;;;;9.13;3.13;;;10.30;88.40;;;;;;5015617;28;20096;-57
2021/11/08 11:35:45;;;;;;;24.50;3.58;;;10.40;88.50;;;;;;5031059;28;20500;-56
2021/11/08 11:38:21;;;;;;;12.32;3.50;;;10.40;88.90;;;;;;5031250;28;20069;-57
2021/11/08 11:41:01;;;;;;;15.73;4.10;;;10.50;88.20;;;;;;5030725;28;20496;-57
2021/11/08 11:43:31;;;;;;;24.10;3.20;;;10.60;88.00;;;;;;5031037;28;20084;-57
2021/11/08 11:45:58;;;;;;;17.23;3.13;;;10.60;88.70;;;;;;5030955;28;20057;-56
2021/11/08 11:48:29;;;;;;;10.65;3.88;;;10.70;88.40;;;;;;5030862;28;20460;-59
2021/11/08 11:51:15;;;;;;;11.75;2.58;;;10.70;87.30;;;;;;5017855;28;20041;-57
2021/11/08 11:53:41;;;;;;;17.92;2.67;;;10.70;88.00;;;;;;5029823;28;20054;-55
2021/11/08 11:56:11;;;;;;;28.30;3.38;;;10.80;87.60;;;;;;5030606;28;20134;-56
2021/11/08 11:58:38;;;;;;;14.23;3.58;;;10.80;87.80;;;;;;5027078;28;20128;-57
2021/11/08 12:01:07;;;;;;;12.35;2.63;;;10.80;87.30;;;;;;5029307;28;20311;-56
2021/11/08 12:03:33;;;;;;;11.27;2.38;;;10.90;87.00;;;;;;5030358;28;20046;-57
2021/11/08 12:06:00;;;;;;;14.55;2.60;;;10.90;86.80;;;;;;5030463;28;20556;-56
2021/11/08 12:08:37;;;;;;;15.18;3.58;;;11.00;85.60;;;;;;5030392;28;20084;-57
2021/11/08 12:11:05;;;;;;;18.45;2.80;;;11.10;84.00;;;;;;5030175;28;20096;-57
2021/11/08 12:13:34;;;;;;;15.20;2.20;;;11.10;85.90;;;;;;5029928;28;20145;-57
2021/11/08 12:16:12;;;;;;;14.50;2.78;;;11.20;85.90;;;;;;5029149;28;20515;-56
2021/11/08 12:18:38;;;;;;;15.45;3.10;;;11.30;81.60;;;;;;5030168;28;20054;-56
2021/11/08 12:21:05;;;;;;;10.63;2.53;;;11.30;83.50;;;;;;5030167;28;20063;-57
2021/11/08 12:23:36;;;;;;;12.27;2.42;;;11.40;84.90;;;;;;5030440;28;20104;-57
2021/11/08 12:26:03;;;;;;;15.70;3.53;;;11.50;83.40;;;;;;5029674;28;20092;-57
2021/11/08 12:28:30;;;;;;;10.27;2.15;;;11.60;83.80;;;;;;5029686;28;20089;-54
2021/11/08 12:31:04;;;;;;;10.68;2.33;;;11.70;84.40;;;;;;5029818;28;20088;-55
2021/11/08 12:33:34;;;;;;;14.82;2.95;;;11.80;82.70;;;;;;5029721;28;20491;-55
2021/11/08 12:36:06;;;;;;;14.95;4.50;;;11.80;82.50;;;;;;5029929;28;20136;-57
2021/11/08 12:38:36;;;;;;;15.07;2.88;;;11.80;81.40;;;;;;5029539;28;20124;-56
2021/11/08 12:41:09;;;;;;;20.42;3.30;;;11.90;80.80;;;;;;5028437;28;20341;-57
2021/11/08 12:43:37;;;;;;;16.92;5.07;;;11.90;80.00;;;;;;5029603;28;20073;-56
2021/11/08 12:46:14;;;;;;;14.38;2.20;;;11.90;79.90;;;;;;5029523;28;20387;-56
2021/11/08 12:48:41;;;;;;;15.07;3.17;;;11.90;79.40;;;;;;5029489;28;20072;-56
2021/11/08 12:51:08;;;;;;;17.70;4.90;;;11.90;81.70;;;;;;5028584;28;20400;-57
2021/11/08 12:53:40;;;;;;;14.80;4.22;;;12.00;82.00;;;;;;5029339;28;20077;-55
2021/11/08 12:56:23;;;;;;;14.30;4.30;;;12.00;81.60;;;;;;5029294;28;20088;-57
2021/11/08 12:58:57;;;;;;;21.83;3.72;;;12.10;79.80;;;;;;5029060;28;20061;-56
2021/11/08 13:01:36;;;;;;;11.40;2.78;;;12.10;80.70;;;;;;5029364;28;20103;-54
2021/11/08 13:04:08;;;;;;;17.58;3.47;;;12.10;80.00;;;;;;5029129;28;20045;-56
2021/11/08 13:06:35;;;;;;;7.53;2.70;;;12.20;81.00;;;;;;5028015;28;20045;-55
2021/11/08 13:09:16;;;;;;;11.07;2.67;;;12.20;82.10;;;;;;5029060;28;20133;-56
2021/11/08 13:11:46;;;;;;;16.40;3.33;;;12.20;80.50;;;;;;5019913;28;20205;-57
2021/11/08 13:14:36;;;;;;;11.73;4.53;;;12.30;82.00;;;;;;5028984;28;20080;-56
2021/11/08 13:17:20;;;;;;;16.75;3.60;;;12.20;79.00;;;;;;5021949;28;20453;-55
2021/11/08 13:19:59;;;;;;;14.32;3.15;;;12.30;78.10;;;;;;5027597;28;20473;-55
2021/11/08 13:22:46;;;;;;;13.00;2.75;;;12.30;78.00;;;;;;5027951;28;20087;-54
2021/11/08 13:25:22;;;;;;;19.30;3.38;;;12.30;80.90;;;;;;5027320;28;20085;-53
2021/11/08 13:27:59;;;;;;;14.05;3.35;;;12.30;77.90;;;;;;5027114;28;20492;-55
2021/11/08 13:30:36;;;;;;;9.90;2.10;;;12.30;80.80;;;;;;5028405;28;20079;-56
2021/11/08 13:33:04;;;;;;;16.40;2.78;;;12.40;77.80;;;;;;5028442;28;20057;-56
2021/11/08 13:35:31;;;;;;;14.70;3.10;;;12.40;79.60;;;;;;5018062;28;20072;-58
2021/11/08 13:38:19;;;;;;;10.00;2.08;;;12.40;79.20;;;;;;5028730;28;20500;-56
2021/11/08 13:40:49;;;;;;;16.83;2.80;;;12.40;75.70;;;;;;5028234;28;20132;-56
2021/11/08 13:43:21;;;;;;;16.77;2.70;;;12.40;79.50;;;;;;5028707;28;20129;-56
2021/11/08 13:46:01;;;;;;;15.43;3.70;;;12.40;78.80;;;;;;5027606;28;20060;-57
2021/11/08 13:48:31;;;;;;;16.73;2.47;;;12.50;80.20;;;;;;5028516;28;20085;-56
2021/11/08 13:51:01;;;;;;;10.13;3.40;;;12.50;80.40;;;;;;5028354;28;20084;-56
2021/11/08 13:53:32;;;;;;;16.38;4.35;;;12.60;80.60;;;;;;5028462;28;20053;-54
2021/11/08 13:56:03;;;;;;;15.27;3.13;;;12.60;78.70;;;;;;5027989;28;20519;-56
2021/11/08 13:58:30;;;;;;;21.38;3.58;;;12.70;80.60;;;;;;5027971;28;20522;-57
2021/11/08 14:01:08;;;;;;;14.05;3.50;;;12.70;80.70;;;;;;5028194;28;20440;-57
2021/11/08 14:03:37;;;;;;;17.95;3.20;;;12.80;78.70;;;;;;5028272;28;20129;-56
2021/11/08 14:06:04;;;;;;;14.70;3.80;;;12.80;80.30;;;;;;5027692;28;20069;-56
2021/11/08 14:08:31;;;;;;;15.80;2.85;;;12.90;80.40;;;;;;5028053;28;20074;-56
2021/11/08 14:10:58;;;;;;;12.05;3.38;;;12.90;80.30;;;;;;5027961;28;20460;-55
2021/11/08 14:13:30;;;;;;;19.30;4.13;;;13.00;79.50;;;;;;5028196;28;20080;-56
2021/11/08 14:15:58;;;;;;;16.70;3.00;;;13.00;78.70;;;;;;5027569;28;20077;-56
2021/11/08 14:18:25;;;;;;;16.40;3.08;;;13.10;79.30;;;;;;5027929;28;20049;-54
2021/11/08 14:21:11;;;;;;;14.93;3.28;;;13.00;78.50;;;;;;5028181;28;20045;-54
2021/11/08 14:23:40;;;;;;;13.55;3.63;;;12.90;76.80;;;;;;5025987;28;20539;-57
2021/11/08 14:26:12;;;;;;;13.43;3.03;;;12.90;79.20;;;;;;5026952;28;20076;-55
2021/11/08 14:28:38;;;;;;;18.05;3.22;;;12.90;77.40;;;;;;5027629;28;20252;-55
2021/11/08 14:31:33;;;;;;;24.20;3.92;;;12.90;79.60;;;;;;5027301;28;20486;-55
2021/11/08 14:34:05;;;;;;;25.80;6.50;;;12.90;77.10;;;;;;5026361;28;20049;-56
2021/11/08 14:36:36;;;;;;;14.68;2.72;;;12.90;79.60;;;;;;5027521;28;20081;-54
2021/11/08 14:39:08;;;;;;;11.10;3.33;;;12.90;79.10;;;;;;5026167;28;20088;-55
2021/11/08 14:41:35;;;;;;;16.67;3.88;;;12.80;78.70;;;;;;5027526;28;20096;-56
2021/11/08 14:44:07;;;;;;;13.77;3.75;;;12.80;79.40;;;;;;5027955;28;20121;-56
2021/11/08 14:46:45;;;;;;;14.25;2.97;;;12.80;79.30;;;;;;5027978;28;20082;-56